createdAt,value
2022-12-04T00:01:28.714Z,55.03
2022-12-04T00:03:57.148Z,54.73
2022-12-04T00:06:25.053Z,54.53
2022-12-04T00:08:54.480Z,54.73
2022-12-04T00:11:26.608Z,55.06
2022-12-04T00:13:54.304Z,54.87
2022-12-04T00:16:25.219Z,53.91
2022-12-04T00:18:52.985Z,54.64
2022-12-04T00:21:20.859Z,54.71
2022-12-04T00:23:48.519Z,54.56
2022-12-04T00:26:20.095Z,54.48
2022-12-04T00:28:48.029Z,54.11
2022-12-04T00:31:16.730Z,53.58
2022-12-04T00:33:44.623Z,54.92
2022-12-04T00:36:13.328Z,54.60
2022-12-04T00:38:42.705Z,54.92
2022-12-04T00:41:10.399Z,54.26
2022-12-04T00:43:39.695Z,54.72
2022-12-04T00:46:07.700Z,53.56
2022-12-04T00:48:35.568Z,54.94
2022-12-04T00:51:04.132Z,54.32
2022-12-04T00:53:32.129Z,54.14
2022-12-04T00:55:59.782Z,54.55
2022-12-04T00:58:27.561Z,54.40
2022-12-04T01:01:02.688Z,54.36
2022-12-04T01:03:30.644Z,53.90
2022-12-04T01:05:58.493Z,53.73
2022-12-04T01:08:26.168Z,54.45
2022-12-04T01:10:53.924Z,54.82
2022-12-04T01:13:21.587Z,53.92
2022-12-04T01:15:49.252Z,53.93
2022-12-04T01:18:18.556Z,53.88
2022-12-04T01:20:48.069Z,54.38
2022-12-04T01:23:15.680Z,54.65
2022-12-04T01:25:51.513Z,54.52
2022-12-04T01:28:19.353Z,54.38
2022-12-04T01:30:46.945Z,53.82
2022-12-04T01:33:14.834Z,53.90
2022-12-04T01:35:43.839Z,53.66
2022-12-04T01:38:13.170Z,54.62
2022-12-04T01:40:44.656Z,54.44
2022-12-04T01:43:13.267Z,54.09
2022-12-04T01:45:42.239Z,53.82
2022-12-04T01:48:14.573Z,54.14
2022-12-04T01:50:43.887Z,54.56
2022-12-04T01:53:12.385Z,54.19
2022-12-04T01:55:40.213Z,54.64
2022-12-04T01:58:08.165Z,54.17
2022-12-04T02:00:36.000Z,54.28
2022-12-04T02:03:03.933Z,54.11
2022-12-04T02:05:31.864Z,54.27
2022-12-04T02:08:02.066Z,53.56
2022-12-04T02:10:36.037Z,53.97
2022-12-04T02:13:06.443Z,54.01
2022-12-04T02:15:36.802Z,53.94
2022-12-04T02:18:13.308Z,53.68
2022-12-04T02:20:43.240Z,54.23
2022-12-04T02:23:21.434Z,54.24
2022-12-04T02:25:54.290Z,54.15
2022-12-04T02:28:24.518Z,54.02
2022-12-04T02:30:52.911Z,53.83
2022-12-04T02:33:22.273Z,54.04
2022-12-04T02:35:53.493Z,54.57
2022-12-04T02:38:23.843Z,54.57
2022-12-04T02:40:52.839Z,54.48
2022-12-04T02:43:23.907Z,54.53
2022-12-04T02:45:54.622Z,54.08
2022-12-04T02:48:22.485Z,54.66
2022-12-04T02:50:52.196Z,53.85
2022-12-04T02:53:21.197Z,53.77
2022-12-04T02:55:51.066Z,54.08
2022-12-04T02:58:23.821Z,53.97
2022-12-04T03:00:52.096Z,54.67
2022-12-04T03:03:21.703Z,54.43
2022-12-04T03:05:54.743Z,54.52
2022-12-04T03:08:23.927Z,54.77
2022-12-04T03:10:53.736Z,53.88
2022-12-04T03:13:23.566Z,54.16
2022-12-04T03:15:53.292Z,54.45
2022-12-04T03:18:22.116Z,54.86
2022-12-04T03:20:51.268Z,54.91
2022-12-04T03:23:20.326Z,54.70
2022-12-04T03:25:51.574Z,54.50
2022-12-04T03:28:26.514Z,53.84
2022-12-04T03:30:56.891Z,54.59
2022-12-04T03:33:28.967Z,54.24
2022-12-04T03:35:58.773Z,54.46
2022-12-04T03:38:31.615Z,54.60
2022-12-04T03:41:03.638Z,54.34
2022-12-04T03:43:34.995Z,54.61
2022-12-04T03:46:05.666Z,54.71
2022-12-04T03:48:38.295Z,54.54
2022-12-04T03:51:08.932Z,55.23
2022-12-04T03:53:40.069Z,54.41
2022-12-04T03:56:11.598Z,54.99
2022-12-04T03:58:43.685Z,54.53
2022-12-04T04:01:11.793Z,54.45
2022-12-04T04:03:40.956Z,54.70
2022-12-04T04:06:10.943Z,54.47
2022-12-04T04:08:40.674Z,54.37
2022-12-04T04:11:12.117Z,54.93
2022-12-04T04:14:01.084Z,55.46
2022-12-04T04:16:47.616Z,55.32
2022-12-04T04:19:33.824Z,55.13
2022-12-04T04:22:19.441Z,54.45
2022-12-04T04:24:48.207Z,55.41
2022-12-04T04:27:16.188Z,54.56
2022-12-04T04:29:52.042Z,54.78
2022-12-04T04:32:22.381Z,55.00
2022-12-04T04:34:52.328Z,54.81
2022-12-04T04:37:24.919Z,54.40
2022-12-04T04:39:56.645Z,54.53
2022-12-04T04:42:27.614Z,54.34
2022-12-04T04:45:06.589Z,54.50
2022-12-04T04:47:35.718Z,54.68
2022-12-04T04:50:04.285Z,53.94
2022-12-04T04:52:32.140Z,54.43
2022-12-04T04:55:00.887Z,53.79
2022-12-04T04:57:29.818Z,54.63
2022-12-04T04:59:59.133Z,54.08
2022-12-04T05:02:27.540Z,54.36
2022-12-04T05:04:55.605Z,54.22
2022-12-04T05:07:23.474Z,53.38
2022-12-04T05:09:51.332Z,53.72
2022-12-04T05:12:19.152Z,53.93
2022-12-04T05:14:47.941Z,53.87
2022-12-04T05:17:17.327Z,53.83
2022-12-04T05:19:54.873Z,53.81
2022-12-04T05:22:24.832Z,53.29
2022-12-04T05:24:52.760Z,53.38
2022-12-04T05:27:20.608Z,53.41
2022-12-04T05:29:48.516Z,53.33
2022-12-04T05:32:18.275Z,53.96
2022-12-04T05:34:48.478Z,53.47
2022-12-04T05:37:16.559Z,53.64
2022-12-04T05:39:45.040Z,53.91
2022-12-04T05:42:13.139Z,53.92
2022-12-04T05:44:41.323Z,52.91
2022-12-04T05:47:09.425Z,52.94
2022-12-04T05:49:38.910Z,53.70
2022-12-04T05:52:07.145Z,53.58
2022-12-04T05:54:35.261Z,53.26
2022-12-04T05:57:03.192Z,53.39
2022-12-04T05:59:34.395Z,53.47
2022-12-04T06:02:02.461Z,52.78
2022-12-04T06:04:30.572Z,53.15
2022-12-04T06:07:03.123Z,53.10
2022-12-04T06:09:31.010Z,53.18
2022-12-04T06:11:59.135Z,53.14
2022-12-04T06:14:31.032Z,53.07
2022-12-04T06:17:01.679Z,52.75
2022-12-04T06:19:30.158Z,52.47
2022-12-04T06:21:59.571Z,52.37
2022-12-04T06:24:27.635Z,52.69
2022-12-04T06:27:26.222Z,53.18
2022-12-04T06:29:45.571Z,52.64
2022-12-04T06:32:22.445Z,52.93
2022-12-04T06:34:52.585Z,52.42
2022-12-04T06:37:22.022Z,52.66
2022-12-04T06:39:52.015Z,52.56
2022-12-04T06:42:20.122Z,52.15
2022-12-04T06:44:48.435Z,52.36
2022-12-04T06:47:17.874Z,52.74
2022-12-04T06:49:50.937Z,52.21
2022-12-04T06:52:25.971Z,52.27
2022-12-04T06:54:55.312Z,52.22
2022-12-04T06:57:23.582Z,51.85
2022-12-04T06:59:51.656Z,51.99
2022-12-04T07:02:23.805Z,51.71
2022-12-04T07:04:56.600Z,51.57
2022-12-04T07:07:24.727Z,52.45
2022-12-04T07:09:53.289Z,51.98
2022-12-04T07:12:23.022Z,52.06
2022-12-04T07:14:51.174Z,51.51
2022-12-04T07:17:19.179Z,51.78
2022-12-04T07:19:49.887Z,51.96
2022-12-04T07:22:51.630Z,52.40
2022-12-04T07:25:55.171Z,52.00
2022-12-04T07:28:31.648Z,52.15
2022-12-04T07:30:59.492Z,52.49
2022-12-04T07:33:55.411Z,51.96
2022-12-04T07:36:34.554Z,51.66
2022-12-04T07:39:39.615Z,52.33
2022-12-04T07:42:24.612Z,51.89
2022-12-04T07:45:14.752Z,52.00
2022-12-04T07:50:10.584Z,52.56
2022-12-04T07:52:38.382Z,52.09
2022-12-04T07:55:07.027Z,52.40
2022-12-04T07:57:34.735Z,51.74
2022-12-04T08:00:04.079Z,51.32
2022-12-04T08:02:31.705Z,51.54
2022-12-04T08:04:59.545Z,50.90
2022-12-04T08:07:29.618Z,51.83
2022-12-04T08:09:57.636Z,51.83
2022-12-04T08:12:25.649Z,50.92
2022-12-04T08:14:53.526Z,51.32
2022-12-04T08:17:22.954Z,51.86
2022-12-04T08:19:50.771Z,50.76
2022-12-04T08:22:24.696Z,50.94
2022-12-04T08:24:52.874Z,51.25
2022-12-04T08:27:20.858Z,52.05
2022-12-04T08:29:48.722Z,51.32
2022-12-04T08:32:16.675Z,50.69
2022-12-04T08:34:48.755Z,51.67
2022-12-04T08:37:19.048Z,51.33
2022-12-04T08:39:50.536Z,50.79
2022-12-04T08:42:18.861Z,50.76
2022-12-04T08:44:47.144Z,51.47
2022-12-04T08:47:14.989Z,50.66
2022-12-04T08:49:42.880Z,51.02
2022-12-04T08:52:12.057Z,50.82
2022-12-04T08:54:39.836Z,50.70
2022-12-04T08:57:07.983Z,49.96
2022-12-04T08:59:35.895Z,50.38
2022-12-04T09:02:04.064Z,50.76
2022-12-04T09:04:32.026Z,50.42
2022-12-04T09:06:59.786Z,50.17
2022-12-04T09:09:29.395Z,50.12
2022-12-04T09:11:57.520Z,50.28
2022-12-04T09:14:25.745Z,50.76
2022-12-04T09:16:53.924Z,50.52
2022-12-04T09:19:21.846Z,50.46
2022-12-04T09:21:49.590Z,50.99
2022-12-04T09:24:17.313Z,50.50
2022-12-04T09:26:46.549Z,50.84
2022-12-04T09:29:14.198Z,49.90
2022-12-04T09:31:42.070Z,50.52
2022-12-04T09:34:09.904Z,49.83
2022-12-04T09:36:38.745Z,50.17
2022-12-04T09:39:06.396Z,50.09
2022-12-04T09:41:57.829Z,49.76
2022-12-04T09:44:53.130Z,49.88
2022-12-04T09:47:22.766Z,49.33
2022-12-04T09:49:52.085Z,49.75
2022-12-04T09:52:30.962Z,50.66
2022-12-04T09:54:58.985Z,50.33
2022-12-04T09:57:35.371Z,50.18
2022-12-04T10:00:04.529Z,50.66
2022-12-04T10:02:35.907Z,49.88
2022-12-04T10:05:03.792Z,49.99
2022-12-04T10:07:34.035Z,49.42
2022-12-04T10:10:03.862Z,50.05
2022-12-04T10:12:36.454Z,49.75
2022-12-04T10:15:16.951Z,49.37
2022-12-04T10:17:55.788Z,49.69
2022-12-04T10:20:31.512Z,50.27
2022-12-04T10:23:02.857Z,50.37
2022-12-04T10:25:30.650Z,50.03
2022-12-04T10:28:01.484Z,50.46
2022-12-04T10:30:30.389Z,50.08
2022-12-04T10:33:00.229Z,50.52
2022-12-04T10:35:29.383Z,49.60
2022-12-04T10:37:58.002Z,50.22
2022-12-04T10:40:28.806Z,50.21
2022-12-04T10:42:57.551Z,49.96
2022-12-04T10:45:27.876Z,49.97
2022-12-04T10:47:55.584Z,49.01
2022-12-04T10:50:24.169Z,48.75
2022-12-04T10:52:51.948Z,49.08
2022-12-04T10:55:29.440Z,48.98
2022-12-04T10:57:57.167Z,49.39
2022-12-04T11:00:41.669Z,48.67
2022-12-04T11:03:11.027Z,48.95
2022-12-04T11:05:41.533Z,49.65
2022-12-04T11:08:10.248Z,49.45
2022-12-04T11:10:39.627Z,49.06
2022-12-04T11:13:08.683Z,49.57
2022-12-04T11:15:37.027Z,49.27
2022-12-04T11:18:16.663Z,48.89
2022-12-04T11:20:47.039Z,48.89
2022-12-04T11:23:16.041Z,48.39
2022-12-04T11:25:46.662Z,49.21
2022-12-04T11:28:39.757Z,48.85
2022-12-04T11:31:05.527Z,49.18
2022-12-04T11:33:36.544Z,48.95
2022-12-04T11:36:06.700Z,48.82
2022-12-04T11:38:35.327Z,48.79
2022-12-04T11:41:03.041Z,49.23
2022-12-04T11:43:32.856Z,48.86
2022-12-04T11:46:31.084Z,48.87
2022-12-04T11:49:00.346Z,49.73
2022-12-04T11:51:34.553Z,49.01
2022-12-04T11:54:05.121Z,48.84
2022-12-04T11:56:33.782Z,48.92
2022-12-04T11:59:26.702Z,49.32
2022-12-04T12:01:58.688Z,49.27
2022-12-04T12:04:58.700Z,49.26
2022-12-04T12:07:32.520Z,49.70
2022-12-04T12:10:02.957Z,49.50
2022-12-04T12:12:36.617Z,49.42
2022-12-04T12:15:18.121Z,49.35
2022-12-04T12:17:47.702Z,49.31
2022-12-04T12:20:18.437Z,49.59
2022-12-04T12:23:16.968Z,49.07
2022-12-04T12:25:52.082Z,49.55
2022-12-04T12:28:28.842Z,50.09
2022-12-04T12:31:06.443Z,49.98
2022-12-04T12:33:35.696Z,49.96
2022-12-04T12:36:07.926Z,49.77
2022-12-04T12:38:38.155Z,50.27
2022-12-04T12:41:07.578Z,50.34
2022-12-04T12:43:36.661Z,50.54
2022-12-04T12:46:07.808Z,50.00
2022-12-04T12:48:37.745Z,50.06
2022-12-04T12:51:29.039Z,50.49
2022-12-04T12:53:58.775Z,50.05
2022-12-04T12:56:32.236Z,50.58
2022-12-04T12:59:00.740Z,50.54
2022-12-04T13:01:31.882Z,50.63
2022-12-04T13:04:01.255Z,51.03
2022-12-04T13:06:32.916Z,51.23
2022-12-04T13:09:05.050Z,50.60
2022-12-04T13:11:32.646Z,51.02
2022-12-04T13:14:02.250Z,51.51
2022-12-04T13:16:33.360Z,51.67
2022-12-04T13:19:07.463Z,51.38
2022-12-04T13:21:38.579Z,51.40
2022-12-04T13:24:32.500Z,51.96
2022-12-04T13:27:02.519Z,52.09
2022-12-04T13:29:38.865Z,52.40
2022-12-04T13:32:15.280Z,51.87
2022-12-04T13:34:53.707Z,52.45
2022-12-04T13:37:47.153Z,52.33
2022-12-04T13:40:35.022Z,52.67
2022-12-04T13:43:30.919Z,52.82
2022-12-04T13:48:37.434Z,53.15
2022-12-04T13:51:22.293Z,52.82
2022-12-04T13:54:01.326Z,53.70
2022-12-04T13:56:29.877Z,53.53
2022-12-04T13:59:01.902Z,54.03
2022-12-04T14:01:30.873Z,54.45
2022-12-04T14:04:00.074Z,54.35
2022-12-04T14:06:29.786Z,54.01
2022-12-04T14:09:00.216Z,53.77
2022-12-04T14:11:27.854Z,54.11
2022-12-04T14:13:56.241Z,53.92
2022-12-04T14:16:25.123Z,54.45
2022-12-04T14:18:54.474Z,54.15
2022-12-04T14:21:22.113Z,54.38
2022-12-04T14:23:50.118Z,54.42
2022-12-04T14:26:29.276Z,54.02
2022-12-04T14:29:09.759Z,53.92
2022-12-04T14:31:38.539Z,54.15
2022-12-04T14:34:18.690Z,54.02
2022-12-04T14:36:46.959Z,54.34
2022-12-04T14:39:18.659Z,53.90
2022-12-04T14:41:47.693Z,54.46
2022-12-04T14:44:26.864Z,53.97
2022-12-04T14:46:54.608Z,54.35
2022-12-04T14:49:28.143Z,54.11
2022-12-04T14:51:59.649Z,53.69
2022-12-04T14:54:30.465Z,53.83
2022-12-04T14:57:07.306Z,53.79
2022-12-04T14:59:40.657Z,54.25
2022-12-04T15:02:12.074Z,54.78
2022-12-04T15:04:45.779Z,54.06
2022-12-04T15:07:21.324Z,54.41
2022-12-04T15:10:10.993Z,54.30
2022-12-04T15:12:45.871Z,54.03
2022-12-04T15:15:16.210Z,54.18
2022-12-04T15:17:43.989Z,53.98
2022-12-04T15:20:15.539Z,54.52
2022-12-04T15:22:43.352Z,55.08
2022-12-04T15:25:17.091Z,55.19
2022-12-04T15:27:46.633Z,54.70
2022-12-04T15:30:18.832Z,54.30
2022-12-04T15:32:46.742Z,54.33
2022-12-04T15:35:17.485Z,54.70
2022-12-04T15:37:48.532Z,54.27
2022-12-04T15:40:21.273Z,54.54
2022-12-04T15:42:50.996Z,54.46
2022-12-04T15:45:34.878Z,54.77
2022-12-04T15:48:02.701Z,54.65
2022-12-04T15:50:31.844Z,54.26
2022-12-04T15:53:07.813Z,54.47
2022-12-04T15:55:37.945Z,54.79
2022-12-04T15:58:08.928Z,54.42
2022-12-04T16:00:38.156Z,54.63
2022-12-04T16:03:07.740Z,54.21
2022-12-04T16:05:37.390Z,54.14
2022-12-04T16:08:23.000Z,54.46
2022-12-04T16:10:57.598Z,54.34
2022-12-04T16:13:31.608Z,54.58
2022-12-04T16:16:00.091Z,54.70
2022-12-04T16:18:28.954Z,54.28
2022-12-04T16:20:56.751Z,54.18
2022-12-04T16:23:25.959Z,54.35
2022-12-04T16:25:53.998Z,54.16
2022-12-04T16:28:21.887Z,54.67
2022-12-04T16:30:51.527Z,54.96
2022-12-04T16:33:19.290Z,54.75
2022-12-04T16:35:46.912Z,54.97
2022-12-04T16:38:16.638Z,54.48
2022-12-04T16:40:45.019Z,54.46
2022-12-04T16:43:13.395Z,54.67
2022-12-04T16:45:44.825Z,54.46
2022-12-04T16:48:14.248Z,55.01
2022-12-04T16:50:42.010Z,54.78
2022-12-04T16:53:11.257Z,55.14
2022-12-04T16:55:40.061Z,55.06
2022-12-04T16:58:07.936Z,54.49
2022-12-04T17:00:36.407Z,54.42
2022-12-04T17:03:05.184Z,54.77
2022-12-04T17:05:35.825Z,54.37
2022-12-04T17:08:03.733Z,54.42
2022-12-04T17:10:31.525Z,54.94
2022-12-04T17:12:59.185Z,54.46
2022-12-04T17:15:26.769Z,54.56
2022-12-04T17:17:54.529Z,55.14
2022-12-04T17:20:22.436Z,54.72
2022-12-04T17:22:51.671Z,54.45
2022-12-04T17:25:19.455Z,55.23
2022-12-04T17:27:47.158Z,55.21
2022-12-04T17:30:15.700Z,54.42
2022-12-04T17:32:43.358Z,54.91
2022-12-04T17:35:12.456Z,55.43
2022-12-04T17:37:40.113Z,55.28
2022-12-04T17:40:10.664Z,55.07
2022-12-04T17:42:38.259Z,55.13
2022-12-04T17:45:07.757Z,55.33
2022-12-04T17:47:36.540Z,55.45
2022-12-04T17:50:04.435Z,55.79
2022-12-04T17:52:32.166Z,55.07
2022-12-04T17:54:59.794Z,55.01
2022-12-04T17:57:28.861Z,55.85
2022-12-04T17:59:56.498Z,55.58
2022-12-04T18:02:24.206Z,56.17
2022-12-04T18:04:51.918Z,55.41
2022-12-04T18:07:19.658Z,55.23
2022-12-04T18:09:47.369Z,55.81
2022-12-04T18:12:15.350Z,56.01
2022-12-04T18:14:44.349Z,55.58
2022-12-04T18:17:12.029Z,55.69
2022-12-04T18:19:39.621Z,55.41
2022-12-04T18:22:07.242Z,55.27
2022-12-04T18:24:36.037Z,54.88
2022-12-04T18:27:03.769Z,55.10
2022-12-04T18:29:31.387Z,54.83
2022-12-04T18:32:01.337Z,54.97
2022-12-04T18:34:29.992Z,55.12
2022-12-04T18:36:57.616Z,55.24
2022-12-04T18:39:26.432Z,55.26
2022-12-04T18:41:55.812Z,55.61
2022-12-04T18:44:24.594Z,55.83
2022-12-04T18:46:53.126Z,55.02
2022-12-04T18:49:22.418Z,55.93
2022-12-04T18:51:50.648Z,55.63
2022-12-04T18:54:19.431Z,55.04
2022-12-04T18:56:47.086Z,55.87
2022-12-04T18:59:15.737Z,55.75
2022-12-04T19:01:43.781Z,55.61
2022-12-04T19:04:12.534Z,55.34
2022-12-04T19:06:42.608Z,55.85
2022-12-04T19:09:12.257Z,55.44
2022-12-04T19:11:40.499Z,55.17
2022-12-04T19:14:20.810Z,55.25
2022-12-04T19:16:50.737Z,55.67
2022-12-04T19:19:18.480Z,55.50
2022-12-04T19:21:47.410Z,55.28
2022-12-04T19:24:15.032Z,55.71
2022-12-04T19:26:42.882Z,55.65
2022-12-04T19:29:13.695Z,55.66
2022-12-04T19:31:41.392Z,55.76
2022-12-04T19:34:09.056Z,55.55
2022-12-04T19:36:36.669Z,55.83
2022-12-04T19:39:05.841Z,55.81
2022-12-04T19:41:35.168Z,55.13
2022-12-04T19:44:14.632Z,55.40
2022-12-04T19:50:33.247Z,55.46
2022-12-04T19:54:17.225Z,55.26
2022-12-04T20:01:45.325Z,55.51
2022-12-04T20:12:31.142Z,56.46
2022-12-04T20:26:04.871Z,57.82
2022-12-04T20:32:33.533Z,57.67
2022-12-04T20:39:13.380Z,57.66
2022-12-04T20:43:13.257Z,58.27
2022-12-04T20:46:46.850Z,58.61
2022-12-04T20:49:20.614Z,57.87
2022-12-04T20:52:20.689Z,58.43
2022-12-04T20:54:50.827Z,58.09
2022-12-04T20:57:19.089Z,58.22
2022-12-04T21:00:02.458Z,58.75
2022-12-04T21:02:33.634Z,58.14
2022-12-04T21:05:28.215Z,58.86
2022-12-04T21:08:11.698Z,58.16
2022-12-04T21:11:53.946Z,58.22
2022-12-04T21:14:53.076Z,58.82
2022-12-04T21:17:21.917Z,58.53
2022-12-04T21:20:00.344Z,58.33
2022-12-04T21:22:30.552Z,58.59
2022-12-04T21:25:00.385Z,58.21
2022-12-04T21:27:30.367Z,58.29
2022-12-04T21:30:00.169Z,58.74
2022-12-04T21:32:27.865Z,58.47
2022-12-04T21:34:55.641Z,58.25
2022-12-04T21:37:24.195Z,58.54
2022-12-04T21:39:52.150Z,58.72
2022-12-04T21:42:32.418Z,58.47
2022-12-04T21:45:01.752Z,58.82
2022-12-04T21:47:29.646Z,58.41
2022-12-04T21:49:58.075Z,58.57
2022-12-04T21:52:27.110Z,58.56
2022-12-04T21:54:55.585Z,57.72
2022-12-04T21:57:23.609Z,58.26
2022-12-04T21:59:52.698Z,58.46
2022-12-04T22:02:22.068Z,58.51
2022-12-04T22:04:50.162Z,58.91
2022-12-04T22:07:18.082Z,58.40
2022-12-04T22:09:46.159Z,58.80
2022-12-04T22:15:04.688Z,58.97
2022-12-04T22:17:35.754Z,58.16
2022-12-04T22:20:04.101Z,58.42
2022-12-04T22:22:32.710Z,59.20
2022-12-04T22:25:01.813Z,59.44
2022-12-04T22:27:30.225Z,59.51
2022-12-04T22:29:59.430Z,59.31
2022-12-04T22:32:27.647Z,59.20
2022-12-04T22:34:57.500Z,59.58
2022-12-04T22:37:25.543Z,59.10
2022-12-04T22:39:58.353Z,58.79
2022-12-04T22:42:26.650Z,59.86
2022-12-04T22:44:54.640Z,58.85
2022-12-04T22:47:22.767Z,58.88
2022-12-04T22:49:50.693Z,59.40
2022-12-04T22:52:20.554Z,59.50
2022-12-04T22:54:48.840Z,59.22
2022-12-04T22:57:17.881Z,59.47
2022-12-04T23:00:05.408Z,59.19
2022-12-04T23:02:34.401Z,59.11
2022-12-04T23:05:03.075Z,59.46
2022-12-04T23:07:32.899Z,58.97
2022-12-04T23:10:01.212Z,58.98
2022-12-04T23:12:29.898Z,59.52
2022-12-04T23:14:57.939Z,59.48
2022-12-04T23:17:26.125Z,59.36
2022-12-04T23:19:54.514Z,59.60
2022-12-04T23:22:22.855Z,59.25
2022-12-04T23:24:52.429Z,59.66
2022-12-04T23:27:20.233Z,59.43
2022-12-04T23:29:55.484Z,59.29
2022-12-04T23:32:23.402Z,59.51
2022-12-04T23:34:53.217Z,58.82
2022-12-04T23:37:22.154Z,59.43
2022-12-04T23:39:56.099Z,58.94
2022-12-04T23:42:26.949Z,58.76
2022-12-04T23:44:55.115Z,59.72
2022-12-04T23:47:33.829Z,59.37
2022-12-04T23:50:07.623Z,59.19
2022-12-04T23:52:35.501Z,58.73
2022-12-04T23:55:05.292Z,59.43
2022-12-04T23:57:33.095Z,58.53
